sensor_id;sensor_type;location;lat;lon;timestamp;pressure;altitude;pressure_sealevel;temperature;humidity
51460;BME280;37534;39.772;2.718;2023-03-23T00:01:06;101395.28;;;12.78;92.31
51460;BME280;37534;39.772;2.718;2023-03-23T00:03:35;101383.63;;;12.96;84.93
51460;BME280;37534;39.772;2.718;2023-03-23T00:06:01;101383.00;;;12.86;85.17
51460;BME280;37534;39.772;2.718;2023-03-23T00:08:37;101375.41;;;12.79;86.78
51460;BME280;37534;39.772;2.718;2023-03-23T00:11:04;101367.81;;;12.72;86.38
51460;BME280;37534;39.772;2.718;2023-03-23T00:13:30;101375.53;;;12.74;87.43
51460;BME280;37534;39.772;2.718;2023-03-23T00:15:56;101363.97;;;12.53;88.75
51460;BME280;37534;39.772;2.718;2023-03-23T00:18:25;101358.03;;;12.48;88.53
51460;BME280;37534;39.772;2.718;2023-03-23T00:20:55;101365.06;;;12.79;82.45
51460;BME280;37534;39.772;2.718;2023-03-23T00:23:24;101363.97;;;12.87;81.17
51460;BME280;37534;39.772;2.718;2023-03-23T00:25:52;101360.16;;;12.66;85.14
51460;BME280;37534;39.772;2.718;2023-03-23T00:28:19;101362.97;;;12.59;88.70
51460;BME280;37534;39.772;2.718;2023-03-23T00:31:00;101360.94;;;12.34;89.86
51460;BME280;37534;39.772;2.718;2023-03-23T00:33:31;101358.69;;;12.18;91.56
51460;BME280;37534;39.772;2.718;2023-03-23T00:36:07;101357.38;;;11.99;94.38
51460;BME280;37534;39.772;2.718;2023-03-23T00:38:34;101356.16;;;12.17;90.95
51460;BME280;37534;39.772;2.718;2023-03-23T00:41:01;101324.72;;;11.95;93.52
51460;BME280;37534;39.772;2.718;2023-03-23T00:43:27;101337.63;;;11.96;93.32
51460;BME280;37534;39.772;2.718;2023-03-23T00:45:54;101329.81;;;12.00;92.34
51460;BME280;37534;39.772;2.718;2023-03-23T00:48:21;101316.94;;;12.34;85.74
51460;BME280;37534;39.772;2.718;2023-03-23T00:50:46;101323.44;;;12.50;85.03
51460;BME280;37534;39.772;2.718;2023-03-23T00:53:12;101315.44;;;12.61;83.60
51460;BME280;37534;39.772;2.718;2023-03-23T00:55:41;101317.28;;;12.90;80.66
51460;BME280;37534;39.772;2.718;2023-03-23T00:58:07;101315.13;;;12.73;83.70
51460;BME280;37534;39.772;2.718;2023-03-23T01:00:33;101315.44;;;12.61;83.35
51460;BME280;37534;39.772;2.718;2023-03-23T01:02:59;101302.91;;;12.44;83.64
51460;BME280;37534;39.772;2.718;2023-03-23T01:05:24;101307.00;;;12.53;81.42
51460;BME280;37534;39.772;2.718;2023-03-23T01:08:00;101297.25;;;12.28;84.12
51460;BME280;37534;39.772;2.718;2023-03-23T01:10:25;101311.75;;;12.35;84.63
51460;BME280;37534;39.772;2.718;2023-03-23T01:12:58;101303.03;;;12.38;82.13
51460;BME280;37534;39.772;2.718;2023-03-23T01:15:25;101309.75;;;12.47;82.84
51460;BME280;37534;39.772;2.718;2023-03-23T01:17:51;101315.06;;;12.41;85.14
51460;BME280;37534;39.772;2.718;2023-03-23T01:20:16;101300.41;;;12.40;82.30
51460;BME280;37534;39.772;2.718;2023-03-23T01:22:42;101311.75;;;12.35;82.80
51460;BME280;37534;39.772;2.718;2023-03-23T01:25:10;101312.50;;;12.41;79.14
51460;BME280;37534;39.772;2.718;2023-03-23T01:27:37;101315.09;;;12.39;79.80
51460;BME280;37534;39.772;2.718;2023-03-23T01:30:04;101310.19;;;12.64;78.48
51460;BME280;37534;39.772;2.718;2023-03-23T01:32:30;101314.56;;;12.62;79.99
51460;BME280;37534;39.772;2.718;2023-03-23T01:34:55;101305.31;;;12.52;79.49
51460;BME280;37534;39.772;2.718;2023-03-23T01:37:21;101311.38;;;12.51;80.08
51460;BME280;37534;39.772;2.718;2023-03-23T01:39:53;101314.25;;;12.39;81.44
51460;BME280;37534;39.772;2.718;2023-03-23T01:42:22;101303.34;;;12.26;83.17
51460;BME280;37534;39.772;2.718;2023-03-23T01:47:13;101302.78;;;12.13;85.51
51460;BME280;37534;39.772;2.718;2023-03-23T01:49:43;101315.28;;;11.94;88.57
51460;BME280;37534;39.772;2.718;2023-03-23T01:52:14;101311.84;;;11.93;87.32
51460;BME280;37534;39.772;2.718;2023-03-23T01:54:45;101306.06;;;11.80;88.81
51460;BME280;37534;39.772;2.718;2023-03-23T01:57:15;101285.53;;;11.74;87.30
51460;BME280;37534;39.772;2.718;2023-03-23T01:59:43;101295.31;;;11.99;85.52
51460;BME280;37534;39.772;2.718;2023-03-23T02:02:12;101297.19;;;11.94;87.50
51460;BME280;37534;39.772;2.718;2023-03-23T02:04:38;101295.63;;;11.85;87.42
51460;BME280;37534;39.772;2.718;2023-03-23T02:07:07;101287.94;;;11.82;86.82
51460;BME280;37534;39.772;2.718;2023-03-23T02:09:34;101287.97;;;11.79;87.50
51460;BME280;37534;39.772;2.718;2023-03-23T02:11:59;101286.41;;;11.72;87.23
51460;BME280;37534;39.772;2.718;2023-03-23T02:14:27;101279.69;;;11.65;89.84
51460;BME280;37534;39.772;2.718;2023-03-23T02:19:42;101269.50;;;11.58;89.08
51460;BME280;37534;39.772;2.718;2023-03-23T02:24:43;101261.75;;;11.57;85.59
51460;BME280;37534;39.772;2.718;2023-03-23T02:38:57;101215.59;;;11.79;85.01
51460;BME280;37534;39.772;2.718;2023-03-23T02:41:33;101217.34;;;11.78;85.70
51460;BME280;37534;39.772;2.718;2023-03-23T02:44:03;101226.63;;;11.87;82.82
51460;BME280;37534;39.772;2.718;2023-03-23T02:46:30;101220.66;;;11.85;83.77
51460;BME280;37534;39.772;2.718;2023-03-23T02:48:57;101198.41;;;11.78;83.83
51460;BME280;37534;39.772;2.718;2023-03-23T02:51:24;101208.09;;;12.06;79.39
51460;BME280;37534;39.772;2.718;2023-03-23T02:53:53;101223.09;;;12.27;77.03
51460;BME280;37534;39.772;2.718;2023-03-23T02:56:20;101219.16;;;12.47;73.34
51460;BME280;37534;39.772;2.718;2023-03-23T02:58:48;101225.09;;;12.50;76.03
51460;BME280;37534;39.772;2.718;2023-03-23T03:01:46;101211.72;;;12.34;77.79
51460;BME280;37534;39.772;2.718;2023-03-23T03:04:13;101220.94;;;12.10;80.04
51460;BME280;37534;39.772;2.718;2023-03-23T03:09:31;101235.53;;;12.13;81.41
51460;BME280;37534;39.772;2.718;2023-03-23T03:15:26;101223.09;;;11.91;83.74
51460;BME280;37534;39.772;2.718;2023-03-23T03:18:13;101210.72;;;12.04;77.72
51460;BME280;37534;39.772;2.718;2023-03-23T03:20:48;101216.31;;;12.23;76.98
51460;BME280;37534;39.772;2.718;2023-03-23T03:23:15;101222.03;;;12.36;74.51
51460;BME280;37534;39.772;2.718;2023-03-23T03:25:43;101219.41;;;12.38;73.85
51460;BME280;37534;39.772;2.718;2023-03-23T03:28:15;101216.75;;;12.41;71.07
51460;BME280;37534;39.772;2.718;2023-03-23T03:30:42;101211.53;;;12.42;72.66
51460;BME280;37534;39.772;2.718;2023-03-23T03:33:10;101205.81;;;12.62;66.24
51460;BME280;37534;39.772;2.718;2023-03-23T03:35:37;101201.13;;;12.77;68.50
51460;BME280;37534;39.772;2.718;2023-03-23T03:38:07;101202.44;;;12.60;71.35
51460;BME280;37534;39.772;2.718;2023-03-23T03:40:34;101196.91;;;12.40;72.48
51460;BME280;37534;39.772;2.718;2023-03-23T03:42:59;101208.50;;;12.25;75.73
51460;BME280;37534;39.772;2.718;2023-03-23T03:45:25;101199.47;;;12.07;79.18
51460;BME280;37534;39.772;2.718;2023-03-23T03:47:50;101198.16;;;11.90;79.81
51460;BME280;37534;39.772;2.718;2023-03-23T03:50:16;101219.75;;;11.86;80.29
51460;BME280;37534;39.772;2.718;2023-03-23T03:52:42;101221.84;;;11.69;81.08
51460;BME280;37534;39.772;2.718;2023-03-23T03:55:08;101226.31;;;11.64;82.88
51460;BME280;37534;39.772;2.718;2023-03-23T03:57:35;101230.22;;;11.41;86.50
51460;BME280;37534;39.772;2.718;2023-03-23T04:00:03;101235.41;;;11.41;85.42
51460;BME280;37534;39.772;2.718;2023-03-23T04:02:39;101244.16;;;11.34;86.33
51460;BME280;37534;39.772;2.718;2023-03-23T04:05:06;101242.69;;;11.20;87.33
51460;BME280;37534;39.772;2.718;2023-03-23T04:07:32;101241.13;;;11.13;88.74
51460;BME280;37534;39.772;2.718;2023-03-23T04:09:57;101241.56;;;11.34;87.65
51460;BME280;37534;39.772;2.718;2023-03-23T04:12:23;101228.09;;;11.19;88.80
51460;BME280;37534;39.772;2.718;2023-03-23T04:14:48;101239.44;;;11.12;88.64
51460;BME280;37534;39.772;2.718;2023-03-23T04:17:14;101228.84;;;11.25;83.52
51460;BME280;37534;39.772;2.718;2023-03-23T04:19:40;101218.31;;;11.34;80.57
51460;BME280;37534;39.772;2.718;2023-03-23T04:22:05;101221.16;;;11.62;77.12
51460;BME280;37534;39.772;2.718;2023-03-23T04:24:31;101231.16;;;11.76;74.75
51460;BME280;37534;39.772;2.718;2023-03-23T04:26:59;101224.91;;;12.24;69.52
51460;BME280;37534;39.772;2.718;2023-03-23T04:29:25;101218.38;;;12.43;63.71
51460;BME280;37534;39.772;2.718;2023-03-23T04:31:50;101235.53;;;12.49;68.18
51460;BME280;37534;39.772;2.718;2023-03-23T04:34:18;101238.19;;;12.46;68.76
51460;BME280;37534;39.772;2.718;2023-03-23T04:36:44;101241.41;;;12.54;66.78
51460;BME280;37534;39.772;2.718;2023-03-23T04:39:12;101223.38;;;12.84;63.54
51460;BME280;37534;39.772;2.718;2023-03-23T04:41:39;101235.09;;;12.97;63.59
51460;BME280;37534;39.772;2.718;2023-03-23T04:44:05;101224.72;;;12.99;62.49
51460;BME280;37534;39.772;2.718;2023-03-23T04:46:31;101227.09;;;12.73;67.27
51460;BME280;37534;39.772;2.718;2023-03-23T04:48:58;101224.25;;;12.50;71.69
51460;BME280;37534;39.772;2.718;2023-03-23T04:51:33;101230.88;;;12.26;73.32
51460;BME280;37534;39.772;2.718;2023-03-23T04:54:01;101215.38;;;11.88;75.87
51460;BME280;37534;39.772;2.718;2023-03-23T04:56:26;101219.88;;;11.82;74.13
51460;BME280;37534;39.772;2.718;2023-03-23T04:58:52;101210.59;;;12.45;63.90
51460;BME280;37534;39.772;2.718;2023-03-23T05:01:17;101224.22;;;12.51;68.56
51460;BME280;37534;39.772;2.718;2023-03-23T05:03:44;101200.31;;;12.42;65.02
51460;BME280;37534;39.772;2.718;2023-03-23T05:06:09;101210.38;;;12.20;72.50
51460;BME280;37534;39.772;2.718;2023-03-23T05:08:35;101217.56;;;12.07;72.18
51460;BME280;37534;39.772;2.718;2023-03-23T05:11:04;101215.00;;;12.07;70.74
51460;BME280;37534;39.772;2.718;2023-03-23T05:13:31;101218.81;;;12.26;67.21
51460;BME280;37534;39.772;2.718;2023-03-23T05:15:57;101216.00;;;12.35;65.69
51460;BME280;37534;39.772;2.718;2023-03-23T05:18:22;101210.16;;;12.62;63.58
51460;BME280;37534;39.772;2.718;2023-03-23T05:20:48;101210.44;;;12.51;67.74
51460;BME280;37534;39.772;2.718;2023-03-23T05:23:14;101220.31;;;12.36;67.72
51460;BME280;37534;39.772;2.718;2023-03-23T05:25:39;101190.50;;;12.20;67.20
51460;BME280;37534;39.772;2.718;2023-03-23T05:28:09;101203.94;;;12.34;65.93
51460;BME280;37534;39.772;2.718;2023-03-23T05:30:36;101205.97;;;12.23;68.73
51460;BME280;37534;39.772;2.718;2023-03-23T05:33:03;101219.09;;;12.15;70.45
51460;BME280;37534;39.772;2.718;2023-03-23T05:35:29;101217.66;;;12.04;71.05
51460;BME280;37534;39.772;2.718;2023-03-23T05:37:55;101212.13;;;11.82;72.52
51460;BME280;37534;39.772;2.718;2023-03-23T05:40:22;101213.25;;;11.68;71.16
51460;BME280;37534;39.772;2.718;2023-03-23T05:42:51;101225.72;;;11.88;71.47
51460;BME280;37534;39.772;2.718;2023-03-23T05:45:17;101218.75;;;11.93;70.33
51460;BME280;37534;39.772;2.718;2023-03-23T05:47:43;101215.88;;;12.06;69.05
51460;BME280;37534;39.772;2.718;2023-03-23T05:50:09;101208.28;;;12.34;66.10
51460;BME280;37534;39.772;2.718;2023-03-23T05:52:36;101207.81;;;12.18;68.83
51460;BME280;37534;39.772;2.718;2023-03-23T05:55:02;101213.16;;;12.12;68.73
51460;BME280;37534;39.772;2.718;2023-03-23T05:57:29;101212.34;;;12.10;66.76
51460;BME280;37534;39.772;2.718;2023-03-23T05:59:54;101217.50;;;12.10;68.41
51460;BME280;37534;39.772;2.718;2023-03-23T06:02:21;101218.69;;;12.31;64.46
51460;BME280;37534;39.772;2.718;2023-03-23T06:04:48;101214.97;;;12.43;63.15
51460;BME280;37534;39.772;2.718;2023-03-23T06:07:14;101220.09;;;12.44;63.36
51460;BME280;37534;39.772;2.718;2023-03-23T06:09:41;101219.84;;;12.53;63.99
51460;BME280;37534;39.772;2.718;2023-03-23T06:12:08;101224.31;;;12.48;66.04
51460;BME280;37534;39.772;2.718;2023-03-23T06:14:35;101224.00;;;12.59;62.00
51460;BME280;37534;39.772;2.718;2023-03-23T06:17:00;101208.25;;;13.00;58.70
51460;BME280;37534;39.772;2.718;2023-03-23T06:19:26;101216.72;;;13.06;57.40
51460;BME280;37534;39.772;2.718;2023-03-23T06:21:54;101232.50;;;13.27;56.98
51460;BME280;37534;39.772;2.718;2023-03-23T06:24:20;101233.47;;;13.56;54.73
51460;BME280;37534;39.772;2.718;2023-03-23T06:26:46;101229.56;;;13.41;58.40
51460;BME280;37534;39.772;2.718;2023-03-23T06:29:13;101227.59;;;13.18;62.59
51460;BME280;37534;39.772;2.718;2023-03-23T06:31:45;101230.22;;;12.86;66.05
51460;BME280;37534;39.772;2.718;2023-03-23T06:34:12;101231.03;;;12.54;69.98
51460;BME280;37534;39.772;2.718;2023-03-23T06:36:38;101231.72;;;12.28;72.56
51460;BME280;37534;39.772;2.718;2023-03-23T06:39:05;101231.53;;;12.35;66.00
51460;BME280;37534;39.772;2.718;2023-03-23T06:41:31;101219.09;;;12.50;70.19
51460;BME280;37534;39.772;2.718;2023-03-23T06:43:58;101218.84;;;12.59;66.92
51460;BME280;37534;39.772;2.718;2023-03-23T06:46:23;101217.69;;;12.71;62.05
51460;BME280;37534;39.772;2.718;2023-03-23T06:48:49;101211.53;;;13.06;58.96
51460;BME280;37534;39.772;2.718;2023-03-23T06:51:16;101229.81;;;13.00;66.43
51460;BME280;37534;39.772;2.718;2023-03-23T06:53:42;101233.00;;;12.79;71.29
51460;BME280;37534;39.772;2.718;2023-03-23T06:56:08;101254.44;;;12.84;69.54
51460;BME280;37534;39.772;2.718;2023-03-23T06:58:34;101248.63;;;13.40;67.93
51460;BME280;37534;39.772;2.718;2023-03-23T07:01:00;101253.19;;;14.43;62.40
51460;BME280;37534;39.772;2.718;2023-03-23T07:03:26;101254.25;;;15.82;57.40
51460;BME280;37534;39.772;2.718;2023-03-23T07:05:53;101260.69;;;17.00;49.67
51460;BME280;37534;39.772;2.718;2023-03-23T07:08:19;101253.53;;;18.00;44.13
51460;BME280;37534;39.772;2.718;2023-03-23T07:10:46;101274.50;;;18.51;42.36
51460;BME280;37534;39.772;2.718;2023-03-23T07:13:11;101261.78;;;19.29;41.70
51460;BME280;37534;39.772;2.718;2023-03-23T07:15:38;101271.44;;;20.08;41.81
51460;BME280;37534;39.772;2.718;2023-03-23T07:18:04;101276.28;;;20.75;41.19
51460;BME280;37534;39.772;2.718;2023-03-23T07:20:29;101281.84;;;21.83;38.63
51460;BME280;37534;39.772;2.718;2023-03-23T07:22:55;101281.75;;;22.91;36.90
51460;BME280;37534;39.772;2.718;2023-03-23T07:25:21;101280.16;;;22.63;35.96
51460;BME280;37534;39.772;2.718;2023-03-23T07:27:47;101277.66;;;23.00;35.90
51460;BME280;37534;39.772;2.718;2023-03-23T07:30:13;101267.63;;;24.16;34.26
51460;BME280;37534;39.772;2.718;2023-03-23T07:32:40;101267.31;;;24.90;33.54
51460;BME280;37534;39.772;2.718;2023-03-23T07:35:07;101265.03;;;25.85;33.39
51460;BME280;37534;39.772;2.718;2023-03-23T07:37:34;101274.47;;;25.55;31.84
51460;BME280;37534;39.772;2.718;2023-03-23T07:40:01;101274.97;;;25.15;31.39
51460;BME280;37534;39.772;2.718;2023-03-23T07:42:43;101279.53;;;24.91;31.01
51460;BME280;37534;39.772;2.718;2023-03-23T07:45:10;101280.03;;;25.18;29.83
51460;BME280;37534;39.772;2.718;2023-03-23T07:47:37;101268.63;;;25.07;30.66
51460;BME280;37534;39.772;2.718;2023-03-23T07:50:03;101267.38;;;24.19;29.89
51460;BME280;37534;39.772;2.718;2023-03-23T07:52:29;101274.94;;;23.88;30.55
51460;BME280;37534;39.772;2.718;2023-03-23T07:54:56;101275.28;;;24.07;31.59
51460;BME280;37534;39.772;2.718;2023-03-23T07:57:21;101276.63;;;23.89;32.17
51460;BME280;37534;39.772;2.718;2023-03-23T07:59:47;101279.44;;;24.34;31.94
51460;BME280;37534;39.772;2.718;2023-03-23T08:02:13;101284.91;;;24.55;31.48
51460;BME280;37534;39.772;2.718;2023-03-23T08:04:39;101274.78;;;24.49;31.86
51460;BME280;37534;39.772;2.718;2023-03-23T08:07:04;101278.09;;;24.75;31.16
51460;BME280;37534;39.772;2.718;2023-03-23T08:09:30;101285.78;;;25.23;30.31
51460;BME280;37534;39.772;2.718;2023-03-23T08:11:56;101276.53;;;25.07;29.91
51460;BME280;37534;39.772;2.718;2023-03-23T08:14:23;101291.66;;;25.04;30.44
51460;BME280;37534;39.772;2.718;2023-03-23T08:16:51;101288.63;;;24.64;29.62
51460;BME280;37534;39.772;2.718;2023-03-23T08:19:17;101302.47;;;25.13;29.50
51460;BME280;37534;39.772;2.718;2023-03-23T08:21:43;101297.56;;;25.19;28.75
51460;BME280;37534;39.772;2.718;2023-03-23T08:24:08;101296.41;;;25.78;27.10
51460;BME280;37534;39.772;2.718;2023-03-23T08:26:36;101298.13;;;25.57;28.48
51460;BME280;37534;39.772;2.718;2023-03-23T08:29:03;101309.94;;;26.50;27.05
51460;BME280;37534;39.772;2.718;2023-03-23T08:31:29;101311.94;;;26.58;26.46
51460;BME280;37534;39.772;2.718;2023-03-23T08:33:55;101301.09;;;25.75;28.29
51460;BME280;37534;39.772;2.718;2023-03-23T08:36:22;101311.63;;;26.51;27.65
51460;BME280;37534;39.772;2.718;2023-03-23T08:38:48;101312.31;;;27.66;25.03
51460;BME280;37534;39.772;2.718;2023-03-23T08:41:17;101315.34;;;27.52;25.13
51460;BME280;37534;39.772;2.718;2023-03-23T08:43:42;101311.91;;;27.30;25.80
51460;BME280;37534;39.772;2.718;2023-03-23T08:46:09;101320.47;;;28.04;24.59
51460;BME280;37534;39.772;2.718;2023-03-23T08:48:37;101314.88;;;28.07;25.15
51460;BME280;37534;39.772;2.718;2023-03-23T08:51:04;101317.34;;;29.05;23.84
51460;BME280;37534;39.772;2.718;2023-03-23T08:53:30;101309.22;;;29.44;23.15
51460;BME280;37534;39.772;2.718;2023-03-23T08:56:06;101321.34;;;29.28;23.52
51460;BME280;37534;39.772;2.718;2023-03-23T08:58:34;101319.69;;;29.45;23.29
51460;BME280;37534;39.772;2.718;2023-03-23T09:00:59;101319.00;;;29.71;22.70
51460;BME280;37534;39.772;2.718;2023-03-23T09:03:25;101329.78;;;29.69;22.83
51460;BME280;37534;39.772;2.718;2023-03-23T09:05:52;101324.63;;;30.22;22.27
51460;BME280;37534;39.772;2.718;2023-03-23T09:08:18;101331.19;;;30.09;22.99
51460;BME280;37534;39.772;2.718;2023-03-23T09:10:44;101331.00;;;30.29;21.69
51460;BME280;37534;39.772;2.718;2023-03-23T09:13:10;101344.81;;;29.33;22.73
51460;BME280;37534;39.772;2.718;2023-03-23T09:15:35;101337.88;;;29.95;23.08
51460;BME280;37534;39.772;2.718;2023-03-23T09:18:01;101340.63;;;30.66;22.61
51460;BME280;37534;39.772;2.718;2023-03-23T09:20:29;101359.88;;;29.42;22.62
51460;BME280;37534;39.772;2.718;2023-03-23T09:22:56;101341.84;;;28.98;23.23
51460;BME280;37534;39.772;2.718;2023-03-23T09:25:25;101349.06;;;29.99;23.24
51460;BME280;37534;39.772;2.718;2023-03-23T09:27:54;101352.84;;;31.37;21.39
51460;BME280;37534;39.772;2.718;2023-03-23T09:30:26;101345.03;;;31.44;21.02
51460;BME280;37534;39.772;2.718;2023-03-23T09:32:53;101348.47;;;31.71;20.63
51460;BME280;37534;39.772;2.718;2023-03-23T09:35:19;101363.16;;;31.83;20.26
51460;BME280;37534;39.772;2.718;2023-03-23T09:37:47;101342.16;;;29.88;22.00
51460;BME280;37534;39.772;2.718;2023-03-23T09:40:16;101327.63;;;29.55;23.23
51460;BME280;37534;39.772;2.718;2023-03-23T09:53:45;101322.34;;;30.27;20.69
51460;BME280;37534;39.772;2.718;2023-03-23T09:56:15;101324.09;;;30.36;20.36
51460;BME280;37534;39.772;2.718;2023-03-23T10:01:32;101331.66;;;29.31;19.74
51460;BME280;37534;39.772;2.718;2023-03-23T10:06:47;101333.41;;;29.68;20.01
51460;BME280;37534;39.772;2.718;2023-03-23T10:09:16;101335.00;;;29.61;19.49
51460;BME280;37534;39.772;2.718;2023-03-23T10:12:02;101334.03;;;28.97;20.05
51460;BME280;37534;39.772;2.718;2023-03-23T10:17:42;101328.22;;;29.49;19.62
51460;BME280;37534;39.772;2.718;2023-03-23T10:20:18;101333.22;;;29.24;18.00
51460;BME280;37534;39.772;2.718;2023-03-23T10:25:36;101329.22;;;29.20;19.70
51460;BME280;37534;39.772;2.718;2023-03-23T10:28:15;101328.75;;;28.87;19.41
51460;BME280;37534;39.772;2.718;2023-03-23T10:30:55;101325.47;;;29.41;18.29
51460;BME280;37534;39.772;2.718;2023-03-23T10:33:40;101319.09;;;28.86;18.23
51460;BME280;37534;39.772;2.718;2023-03-23T10:38:47;101323.31;;;29.72;17.51
51460;BME280;37534;39.772;2.718;2023-03-23T10:41:18;101321.34;;;29.28;17.42
51460;BME280;37534;39.772;2.718;2023-03-23T10:43:45;101325.81;;;29.28;17.49
51460;BME280;37534;39.772;2.718;2023-03-23T10:49:00;101329.50;;;28.50;19.37
51460;BME280;37534;39.772;2.718;2023-03-23T10:51:40;101327.72;;;28.02;19.72
51460;BME280;37534;39.772;2.718;2023-03-23T10:54:07;101324.31;;;27.71;21.99
51460;BME280;37534;39.772;2.718;2023-03-23T10:56:41;101325.50;;;28.07;21.01
51460;BME280;37534;39.772;2.718;2023-03-23T10:59:17;101347.41;;;28.48;19.32
51460;BME280;37534;39.772;2.718;2023-03-23T11:01:48;101317.59;;;27.76;22.86
51460;BME280;37534;39.772;2.718;2023-03-23T11:04:16;101328.28;;;28.54;21.07
51460;BME280;37534;39.772;2.718;2023-03-23T11:06:49;101330.69;;;28.85;21.98
51460;BME280;37534;39.772;2.718;2023-03-23T11:09:17;101319.91;;;28.96;20.52
51460;BME280;37534;39.772;2.718;2023-03-23T11:11:50;101325.59;;;28.64;21.72
51460;BME280;37534;39.772;2.718;2023-03-23T11:14:35;101315.75;;;28.84;22.74
51460;BME280;37534;39.772;2.718;2023-03-23T11:17:05;101309.22;;;28.78;20.46
51460;BME280;37534;39.772;2.718;2023-03-23T11:19:45;101323.19;;;28.80;21.02
51460;BME280;37534;39.772;2.718;2023-03-23T11:22:19;101316.47;;;29.51;20.41
51460;BME280;37534;39.772;2.718;2023-03-23T11:24:49;101330.34;;;29.91;19.26
51460;BME280;37534;39.772;2.718;2023-03-23T11:27:17;101316.66;;;30.40;18.89
51460;BME280;37534;39.772;2.718;2023-03-23T11:30:08;101306.00;;;30.40;18.21
51460;BME280;37534;39.772;2.718;2023-03-23T11:32:34;101306.16;;;30.20;18.75
51460;BME280;37534;39.772;2.718;2023-03-23T11:35:06;101309.16;;;30.61;18.80
51460;BME280;37534;39.772;2.718;2023-03-23T11:37:42;101296.97;;;31.19;17.92
51460;BME280;37534;39.772;2.718;2023-03-23T11:43:07;101299.69;;;30.23;18.12
51460;BME280;37534;39.772;2.718;2023-03-23T11:45:35;101293.56;;;31.01;17.87
51460;BME280;37534;39.772;2.718;2023-03-23T11:56:13;101289.53;;;30.00;18.29
51460;BME280;37534;39.772;2.718;2023-03-23T11:58:40;101290.06;;;29.86;17.46
51460;BME280;37534;39.772;2.718;2023-03-23T12:04:15;101295.63;;;29.92;18.38
51460;BME280;37534;39.772;2.718;2023-03-23T12:15:33;101303.41;;;30.30;16.88
51460;BME280;37534;39.772;2.718;2023-03-23T12:20:52;101291.50;;;31.29;16.82
51460;BME280;37534;39.772;2.718;2023-03-23T12:23:29;101269.72;;;31.42;16.28
51460;BME280;37534;39.772;2.718;2023-03-23T12:26:05;101284.97;;;31.74;16.27
51460;BME280;37534;39.772;2.718;2023-03-23T12:34:31;101281.47;;;31.90;16.02
51460;BME280;37534;39.772;2.718;2023-03-23T12:48:00;101255.44;;;32.42;14.71
51460;BME280;37534;39.772;2.718;2023-03-23T12:53:17;101250.72;;;30.60;15.56
51460;BME280;37534;39.772;2.718;2023-03-23T12:55:53;101250.66;;;30.51;15.81
51460;BME280;37534;39.772;2.718;2023-03-23T12:58:28;101252.84;;;31.25;15.45
51460;BME280;37534;39.772;2.718;2023-03-23T13:01:10;101244.78;;;31.92;15.21
51460;BME280;37534;39.772;2.718;2023-03-23T13:03:46;101241.97;;;31.86;15.03
51460;BME280;37534;39.772;2.718;2023-03-23T13:14:10;101238.00;;;30.80;15.75
51460;BME280;37534;39.772;2.718;2023-03-23T13:23:25;101228.69;;;31.18;15.33
51460;BME280;37534;39.772;2.718;2023-03-23T13:25:54;101228.22;;;31.39;14.90
51460;BME280;37534;39.772;2.718;2023-03-23T13:28:30;101230.06;;;31.47;15.09
51460;BME280;37534;39.772;2.718;2023-03-23T13:31:11;101243.22;;;30.89;14.76
51460;BME280;37534;39.772;2.718;2023-03-23T13:33:37;101222.94;;;31.56;14.78
51460;BME280;37534;39.772;2.718;2023-03-23T13:36:25;101206.06;;;31.39;15.39
51460;BME280;37534;39.772;2.718;2023-03-23T13:38:51;101218.63;;;30.96;15.61
51460;BME280;37534;39.772;2.718;2023-03-23T13:41:19;101223.50;;;30.74;16.10
51460;BME280;37534;39.772;2.718;2023-03-23T13:43:47;101225.81;;;30.43;15.75
51460;BME280;37534;39.772;2.718;2023-03-23T13:46:25;101216.66;;;31.14;14.96
51460;BME280;37534;39.772;2.718;2023-03-23T13:51:36;101207.44;;;31.51;15.74
51460;BME280;37534;39.772;2.718;2023-03-23T13:54:24;101200.78;;;31.96;16.00
51460;BME280;37534;39.772;2.718;2023-03-23T13:56:57;101205.13;;;31.64;15.96
51460;BME280;37534;39.772;2.718;2023-03-23T14:01:52;101195.19;;;31.16;17.14
51460;BME280;37534;39.772;2.718;2023-03-23T14:04:19;101192.38;;;31.34;16.22
51460;BME280;37534;39.772;2.718;2023-03-23T14:06:47;101205.31;;;30.69;17.90
51460;BME280;37534;39.772;2.718;2023-03-23T14:09:33;101197.66;;;31.01;17.12
51460;BME280;37534;39.772;2.718;2023-03-23T14:12:03;101203.88;;;31.26;16.94
51460;BME280;37534;39.772;2.718;2023-03-23T14:14:40;101202.94;;;30.32;18.29
51460;BME280;37534;39.772;2.718;2023-03-23T14:17:15;101183.41;;;29.97;18.13
51460;BME280;37534;39.772;2.718;2023-03-23T14:19:45;101200.94;;;29.46;19.08
51460;BME280;37534;39.772;2.718;2023-03-23T14:22:31;101198.47;;;28.89;18.74
51460;BME280;37534;39.772;2.718;2023-03-23T14:25:11;101203.13;;;28.30;19.62
51460;BME280;37534;39.772;2.718;2023-03-23T14:27:38;101202.34;;;27.51;19.69
51460;BME280;37534;39.772;2.718;2023-03-23T14:30:14;101213.53;;;27.45;20.87
51460;BME280;37534;39.772;2.718;2023-03-23T14:32:40;101202.66;;;27.77;20.79
51460;BME280;37534;39.772;2.718;2023-03-23T14:35:30;101211.28;;;28.18;19.84
51460;BME280;37534;39.772;2.718;2023-03-23T14:37:56;101222.16;;;28.15;20.20
51460;BME280;37534;39.772;2.718;2023-03-23T14:40:26;101191.75;;;27.80;20.80
51460;BME280;37534;39.772;2.718;2023-03-23T14:42:52;101185.31;;;27.73;20.59
51460;BME280;37534;39.772;2.718;2023-03-23T14:45:20;101191.16;;;28.16;20.07
51460;BME280;37534;39.772;2.718;2023-03-23T14:47:49;101188.53;;;27.86;19.80
51460;BME280;37534;39.772;2.718;2023-03-23T14:50:30;101184.66;;;27.91;19.13
51460;BME280;37534;39.772;2.718;2023-03-23T14:53:03;101186.44;;;27.80;18.53
51460;BME280;37534;39.772;2.718;2023-03-23T14:55:35;101176.25;;;27.66;20.32
51460;BME280;37534;39.772;2.718;2023-03-23T14:58:14;101184.63;;;27.71;20.13